Terminal Aerodrome Forecast
Issued by NWS Wichita, KS

Home | Current Version | Previous Version | Text Only | Print | Product List | Glossary Off
Versions: 1 2 3 4 5 6 7 8 9 10 11 12 13 14

000
FTUS43 KICT 310522
TAFICT
TAF
KICT 310522Z 3106/0106 13005KT P6SM SKC
     FM310900 13005KT 4SM BR SCT012
      TEMPO 3110/3113 2SM BR
     FM311500 16011KT P6SM FEW035=

USA.gov is the U.S. government's official web portal to all federal, state and local government web resources and services.